Time;durP1;ratioP1;P1;durP2;ratioP2;P2;SDS_P1;SDS_P2;PMS_P1;PMS_P2;Temp;Humidity;BMP_temperature;BMP_pressure;BME280_temperature;BME280_humidity;BME280_pressure;Samples;Min_cycle;Max_cycle;Signal;HPM_P1;HPM_P2
2024/02/12 00:01:19;;;;;;;3.85;2.72;;;9.90;99.90;;;;;;4141745;28;20576;-65
2024/02/12 00:03:20;;;;;;;4.72;2.85;;;9.90;99.90;;;;;;4146471;28;20040;-65
2024/02/12 00:05:21;;;;;;;4.60;2.88;;;9.90;99.90;;;;;;4145291;28;20068;-65
2024/02/12 00:07:22;;;;;;;3.95;2.83;;;9.90;99.90;;;;;;4144579;28;20034;-65
2024/02/12 00:09:26;;;;;;;5.03;3.20;;;9.90;99.90;;;;;;4143211;28;20037;-64
2024/02/12 00:11:29;;;;;;;4.78;3.00;;;9.90;99.90;;;;;;4145821;28;20057;-65
2024/02/12 00:13:30;;;;;;;3.33;2.42;;;9.90;99.90;;;;;;4144546;28;20033;-65
2024/02/12 00:15:30;;;;;;;4.47;2.67;;;9.90;99.90;;;;;;4142967;28;20120;-65
2024/02/12 00:17:31;;;;;;;4.60;3.13;;;9.90;99.90;;;;;;4144095;28;20164;-65
2024/02/12 00:19:34;;;;;;;7.20;3.70;;;9.90;99.90;;;;;;4145804;28;20461;-65
2024/02/12 00:21:36;;;;;;;4.97;3.10;;;9.90;99.90;;;;;;4144120;28;20105;-66
2024/02/12 00:23:36;;;;;;;6.45;4.13;;;9.90;99.90;;;;;;4148537;28;20029;-65
2024/02/12 00:25:37;;;;;;;5.10;3.47;;;9.90;99.90;;;;;;4146357;28;20436;-65
2024/02/12 00:27:38;;;;;;;6.55;3.63;;;9.90;99.90;;;;;;4143652;28;20124;-65
2024/02/12 00:29:39;;;;;;;4.63;3.05;;;9.90;99.90;;;;;;4146090;28;20514;-65
2024/02/12 00:31:40;;;;;;;5.60;3.28;;;9.90;99.90;;;;;;4142449;28;20068;-65
2024/02/12 00:33:40;;;;;;;4.13;3.13;;;9.90;99.90;;;;;;4142990;28;20554;-67
2024/02/12 00:35:41;;;;;;;5.85;3.13;;;10.00;99.90;;;;;;4143264;28;20028;-65
2024/02/12 00:37:42;;;;;;;4.25;3.10;;;10.00;99.90;;;;;;4141376;28;20128;-65
2024/02/12 00:39:42;;;;;;;4.47;3.15;;;9.90;99.90;;;;;;4142556;28;20451;-65
2024/02/12 00:41:48;;;;;;;5.65;3.88;;;9.90;99.90;;;;;;4141747;28;20112;-64
2024/02/12 00:43:51;;;;;;;6.40;4.00;;;10.00;99.90;;;;;;4147857;28;20048;-64
2024/02/12 00:45:52;;;;;;;4.32;3.65;;;9.90;99.90;;;;;;4137389;28;20545;-64
2024/02/12 00:47:53;;;;;;;5.07;3.55;;;9.90;99.90;;;;;;4143626;28;20046;-65
2024/02/12 00:49:54;;;;;;;10.20;4.38;;;10.00;99.90;;;;;;4141284;28;20038;-65
2024/02/12 00:51:55;;;;;;;7.30;3.97;;;9.90;99.90;;;;;;4142713;28;19948;-65
2024/02/12 00:53:55;;;;;;;4.40;3.20;;;9.90;99.90;;;;;;4141740;28;20075;-64
2024/02/12 00:55:57;;;;;;;6.68;3.92;;;10.00;99.90;;;;;;4145612;28;20046;-65
2024/02/12 00:57:58;;;;;;;5.93;4.17;;;10.00;99.90;;;;;;4142869;28;20416;-65
2024/02/12 00:59:58;;;;;;;5.03;4.05;;;10.00;99.90;;;;;;4143938;28;20133;-65
2024/02/12 01:01:59;;;;;;;6.82;3.90;;;9.90;99.90;;;;;;4141604;28;20042;-65
2024/02/12 01:03:59;;;;;;;5.32;4.05;;;10.00;99.90;;;;;;4140129;28;20046;-65
2024/02/12 01:06:00;;;;;;;5.70;4.10;;;9.90;99.90;;;;;;4143377;28;20038;-65
2024/02/12 01:08:01;;;;;;;8.27;4.78;;;9.90;99.90;;;;;;4142828;28;20049;-67
2024/02/12 01:10:03;;;;;;;5.72;4.22;;;9.90;99.90;;;;;;4142980;28;20698;-67
2024/02/12 01:12:04;;;;;;;6.50;4.57;;;9.90;99.90;;;;;;4143413;28;20056;-67
2024/02/12 01:14:06;;;;;;;6.97;5.00;;;9.90;99.90;;;;;;4148850;28;20034;-66
2024/02/12 01:16:07;;;;;;;6.50;4.45;;;9.90;99.90;;;;;;4148465;28;20042;-66
2024/02/12 01:18:07;;;;;;;7.50;5.07;;;9.90;99.90;;;;;;4149264;28;20040;-67
2024/02/12 01:20:08;;;;;;;10.00;6.32;;;9.80;99.90;;;;;;4148835;28;20121;-67
2024/02/12 01:22:09;;;;;;;9.95;6.22;;;9.80;99.90;;;;;;4147801;28;20041;-66
2024/02/12 01:24:09;;;;;;;9.30;6.00;;;9.80;99.90;;;;;;4146324;28;20395;-67
2024/02/12 01:26:13;;;;;;;10.27;6.45;;;9.80;99.90;;;;;;4147028;28;20071;-66
2024/02/12 01:28:15;;;;;;;10.80;7.25;;;9.70;99.90;;;;;;4147708;28;20180;-67
2024/02/12 01:30:16;;;;;;;10.35;6.82;;;9.80;99.90;;;;;;4144289;28;22025;-67
2024/02/12 01:32:16;;;;;;;11.27;6.90;;;9.80;99.90;;;;;;4149339;28;20097;-67
2024/02/12 01:34:17;;;;;;;11.35;6.75;;;9.70;99.90;;;;;;4148965;28;20041;-66
2024/02/12 01:36:18;;;;;;;14.00;7.53;;;9.70;99.90;;;;;;4149769;28;20041;-66
2024/02/12 01:38:18;;;;;;;11.27;8.02;;;9.70;99.90;;;;;;4147735;28;20034;-67
2024/02/12 01:40:20;;;;;;;9.67;6.57;;;9.70;99.90;;;;;;4146120;28;20037;-66
2024/02/12 01:42:21;;;;;;;10.65;7.00;;;9.70;99.90;;;;;;4148497;28;20030;-66
2024/02/12 01:44:21;;;;;;;15.30;7.93;;;9.70;99.90;;;;;;4154014;28;20032;-67
2024/02/12 01:46:22;;;;;;;11.30;7.78;;;9.70;99.90;;;;;;4146446;28;20041;-66
2024/02/12 01:48:25;;;;;;;16.80;8.65;;;9.70;99.90;;;;;;4147812;28;20050;-59
2024/02/12 01:50:27;;;;;;;13.70;8.93;;;9.70;99.90;;;;;;4146747;28;20568;-65
2024/02/12 01:52:29;;;;;;;12.18;8.27;;;9.70;99.90;;;;;;4146695;28;20494;-66
2024/02/12 01:54:30;;;;;;;16.88;10.32;;;9.70;99.90;;;;;;4149358;28;20405;-66
2024/02/12 01:56:31;;;;;;;16.10;9.25;;;9.60;99.90;;;;;;4146664;28;20054;-65
2024/02/12 01:58:33;;;;;;;18.88;10.02;;;9.70;99.90;;;;;;4150054;28;20068;-65
2024/02/12 02:00:33;;;;;;;19.97;10.40;;;9.70;99.90;;;;;;4146371;28;20509;-65
2024/02/12 02:02:34;;;;;;;15.50;10.13;;;9.60;99.90;;;;;;4149251;28;20042;-66
2024/02/12 02:04:36;;;;;;;15.95;9.85;;;9.60;99.90;;;;;;4147801;28;20490;-65
2024/02/12 02:06:37;;;;;;;13.82;8.90;;;9.60;99.90;;;;;;4144600;28;20390;-66
2024/02/12 02:08:40;;;;;;;21.58;10.98;;;9.60;99.90;;;;;;4141584;28;20096;-65
2024/02/12 02:10:40;;;;;;;22.58;12.90;;;9.60;99.90;;;;;;4147825;28;20045;-66
2024/02/12 02:12:42;;;;;;;21.25;12.07;;;9.60;99.90;;;;;;4148081;28;20034;-66
2024/02/12 02:14:44;;;;;;;17.98;11.68;;;9.60;99.90;;;;;;4147489;28;20505;-66
2024/02/12 02:16:44;;;;;;;21.80;12.50;;;9.60;99.90;;;;;;4148171;28;20364;-66
2024/02/12 02:18:46;;;;;;;21.58;13.20;;;9.60;99.90;;;;;;4149292;28;20095;-66
2024/02/12 02:20:47;;;;;;;27.80;15.53;;;9.60;99.90;;;;;;4145406;28;20069;-66
2024/02/12 02:22:49;;;;;;;28.42;16.75;;;9.60;99.90;;;;;;4152058;28;20026;-66
2024/02/12 02:24:49;;;;;;;31.23;17.83;;;9.60;99.90;;;;;;4144684;28;20034;-65
2024/02/12 02:26:50;;;;;;;29.38;17.35;;;9.50;99.90;;;;;;4145312;28;20095;-66
2024/02/12 02:28:51;;;;;;;32.28;18.67;;;9.50;99.90;;;;;;4145346;28;20459;-59
2024/02/12 02:30:52;;;;;;;28.63;17.00;;;9.50;99.90;;;;;;4145425;28;20458;-58
2024/02/12 02:32:53;;;;;;;30.83;18.30;;;9.60;99.90;;;;;;4146016;28;20042;-59
2024/02/12 02:34:55;;;;;;;34.00;18.50;;;9.50;99.90;;;;;;4146832;28;20058;-59
2024/02/12 02:36:56;;;;;;;28.00;17.27;;;9.50;99.90;;;;;;4144435;28;20041;-59
2024/02/12 02:39:01;;;;;;;29.13;17.23;;;9.50;99.90;;;;;;4141539;28;20044;-59
2024/02/12 02:41:03;;;;;;;27.30;16.50;;;9.50;99.90;;;;;;4146064;28;20368;-59
2024/02/12 02:43:04;;;;;;;25.10;16.30;;;9.50;99.90;;;;;;4150141;28;20479;-59
2024/02/12 02:45:08;;;;;;;25.13;14.68;;;9.50;99.90;;;;;;4146971;28;20040;-59
2024/02/12 02:47:10;;;;;;;24.73;15.20;;;9.50;99.90;;;;;;4143466;28;20165;-60
2024/02/12 02:49:12;;;;;;;27.25;16.50;;;9.50;99.90;;;;;;4142639;28;20037;-59
2024/02/12 02:51:13;;;;;;;22.90;13.80;;;9.50;99.90;;;;;;4144184;28;20483;-61
2024/02/12 02:53:13;;;;;;;26.25;14.45;;;9.50;99.90;;;;;;4146574;28;20315;-59
2024/02/12 02:55:16;;;;;;;20.65;13.10;;;9.50;99.90;;;;;;4144554;28;20034;-59
2024/02/12 02:57:18;;;;;;;21.88;12.93;;;9.50;99.90;;;;;;4145894;28;20032;-58
2024/02/12 02:59:18;;;;;;;21.08;13.05;;;9.50;99.90;;;;;;4142925;28;20075;-58
2024/02/12 03:01:19;;;;;;;22.00;12.70;;;9.50;99.90;;;;;;4146344;28;20211;-59
2024/02/12 03:03:20;;;;;;;24.20;13.50;;;9.50;99.90;;;;;;4147987;28;20374;-59
2024/02/12 03:05:20;;;;;;;19.75;12.80;;;9.40;99.90;;;;;;4145383;28;20094;-59
2024/02/12 03:07:21;;;;;;;18.05;12.23;;;9.50;99.90;;;;;;4146734;28;20030;-58
2024/02/12 03:09:22;;;;;;;21.63;12.52;;;9.50;99.90;;;;;;4144809;28;20197;-65
2024/02/12 03:11:24;;;;;;;23.10;13.43;;;9.40;99.90;;;;;;4143409;28;20065;-65
2024/02/12 03:13:24;;;;;;;20.70;11.88;;;9.40;99.90;;;;;;4147692;28;20113;-65
2024/02/12 03:15:26;;;;;;;19.50;11.98;;;9.40;99.90;;;;;;4144628;28;20057;-64
2024/02/12 03:17:26;;;;;;;18.87;12.47;;;9.40;99.90;;;;;;4145215;28;20048;-65
2024/02/12 03:19:27;;;;;;;22.55;12.82;;;9.40;99.90;;;;;;4144141;28;20065;-64
2024/02/12 03:21:28;;;;;;;18.38;11.75;;;9.40;99.90;;;;;;4142346;28;20042;-64
2024/02/12 03:23:30;;;;;;;23.10;12.88;;;9.40;99.90;;;;;;4142997;28;20042;-64
2024/02/12 03:25:30;;;;;;;20.85;13.07;;;9.30;99.90;;;;;;4143156;28;20557;-65
2024/02/12 03:27:31;;;;;;;18.10;12.88;;;9.30;99.90;;;;;;4145472;28;20038;-64
2024/02/12 03:29:32;;;;;;;21.15;12.65;;;9.30;99.90;;;;;;4146568;28;20042;-65
2024/02/12 03:31:33;;;;;;;19.30;12.52;;;9.40;99.90;;;;;;4144067;28;20053;-64
2024/02/12 03:33:34;;;;;;;21.13;13.00;;;9.30;99.90;;;;;;4144157;28;20487;-64
2024/02/12 03:35:34;;;;;;;22.60;13.63;;;9.30;99.90;;;;;;4143084;28;20037;-65
2024/02/12 03:37:35;;;;;;;27.60;14.75;;;9.30;99.90;;;;;;4144036;28;20040;-65
2024/02/12 03:39:36;;;;;;;21.35;13.13;;;9.30;99.90;;;;;;4146082;28;20494;-67
2024/02/12 03:41:37;;;;;;;20.50;13.48;;;9.40;99.90;;;;;;4147979;28;20030;-67
2024/02/12 03:43:37;;;;;;;24.90;15.80;;;9.30;99.90;;;;;;4146306;28;20040;-67
2024/02/12 03:45:44;;;;;;;25.80;15.35;;;9.30;99.90;;;;;;4146329;28;20080;-67
2024/02/12 03:47:47;;;;;;;22.50;13.48;;;9.30;99.90;;;;;;4142863;28;20033;-67
2024/02/12 04:01:26;;;;;;;22.02;13.05;;;9.40;99.90;;;;;;4144823;28;20454;-67
2024/02/12 04:03:26;;;;;;;20.80;14.45;;;9.40;99.90;;;;;;4144060;28;20509;-67
2024/02/12 04:05:27;;;;;;;26.90;15.75;;;9.40;99.90;;;;;;4138335;28;20050;-67
2024/02/12 04:07:28;;;;;;;25.42;15.70;;;9.40;99.90;;;;;;4145172;28;20046;-67
2024/02/12 04:09:28;;;;;;;23.10;15.13;;;9.50;99.90;;;;;;4141973;28;20463;-67
2024/02/12 04:11:29;;;;;;;27.30;16.48;;;9.40;99.90;;;;;;4143333;28;20060;-68
2024/02/12 04:13:29;;;;;;;26.02;15.88;;;9.40;99.90;;;;;;4147260;28;20108;-67
2024/02/12 04:15:30;;;;;;;29.08;16.80;;;9.40;99.90;;;;;;4142987;28;20045;-67
2024/02/12 04:17:31;;;;;;;24.55;15.00;;;9.40;99.90;;;;;;4128454;28;20034;-67
2024/02/12 04:19:32;;;;;;;25.30;15.05;;;9.40;99.90;;;;;;4144408;28;20092;-64
2024/02/12 04:21:33;;;;;;;29.15;16.48;;;9.40;99.90;;;;;;4143723;28;20501;-64
2024/02/12 04:23:33;;;;;;;22.88;14.85;;;9.30;99.90;;;;;;4147449;28;20022;-65
2024/02/12 04:25:35;;;;;;;21.25;13.60;;;9.40;99.90;;;;;;4141512;28;20085;-65
2024/02/12 04:27:36;;;;;;;30.52;16.38;;;9.40;99.90;;;;;;4145607;28;20030;-64
2024/02/12 04:29:38;;;;;;;24.08;15.43;;;9.40;99.90;;;;;;4143235;28;20425;-64
2024/02/12 04:31:39;;;;;;;24.75;15.52;;;9.40;99.90;;;;;;4143133;28;20045;-65
2024/02/12 04:33:41;;;;;;;23.67;15.40;;;9.40;99.90;;;;;;4143260;28;20034;-65
2024/02/12 04:35:41;;;;;;;27.20;16.75;;;9.40;99.90;;;;;;4143295;28;20068;-64
2024/02/12 04:37:45;;;;;;;31.70;17.08;;;9.40;99.90;;;;;;4145896;28;20490;-65
2024/02/12 04:39:48;;;;;;;32.78;18.25;;;9.40;99.90;;;;;;4142778;28;20038;-65
2024/02/12 04:41:51;;;;;;;31.35;17.88;;;9.40;99.90;;;;;;4142287;28;20026;-65
2024/02/12 04:43:51;;;;;;;27.63;16.90;;;9.40;99.90;;;;;;4143402;28;20049;-65
2024/02/12 04:45:52;;;;;;;27.73;17.30;;;9.40;99.90;;;;;;4142629;28;20025;-65
2024/02/12 04:47:52;;;;;;;30.42;18.83;;;9.40;99.90;;;;;;4144109;28;20789;-67
2024/02/12 04:49:53;;;;;;;26.90;17.98;;;9.40;99.90;;;;;;4143069;28;20030;-67
2024/02/12 04:51:54;;;;;;;28.83;18.13;;;9.40;99.90;;;;;;4147851;28;20054;-67
2024/02/12 04:53:54;;;;;;;26.52;16.42;;;9.40;99.90;;;;;;4145216;28;20040;-67
2024/02/12 04:55:55;;;;;;;28.77;17.15;;;9.40;99.90;;;;;;4141458;28;20469;-67
2024/02/12 04:57:56;;;;;;;30.05;16.65;;;9.40;99.90;;;;;;4144074;28;20124;-67
2024/02/12 04:59:57;;;;;;;32.03;19.15;;;9.40;99.90;;;;;;4145303;28;20415;-67
2024/02/12 05:01:58;;;;;;;27.27;17.13;;;9.40;99.90;;;;;;4140508;28;20049;-67
2024/02/12 05:03:59;;;;;;;28.33;17.40;;;9.40;99.90;;;;;;4144189;28;20045;-68
2024/02/12 05:05:59;;;;;;;33.45;15.63;;;9.40;99.90;;;;;;4144932;28;20112;-67
2024/02/12 05:08:04;;;;;;;29.75;16.58;;;9.40;99.90;;;;;;4146496;28;20037;-67
2024/02/12 05:10:05;;;;;;;27.73;17.33;;;9.40;99.90;;;;;;4142727;28;20788;-68
2024/02/12 05:12:06;;;;;;;26.67;15.77;;;9.30;99.90;;;;;;4140790;28;20494;-67
2024/02/12 05:14:06;;;;;;;26.40;16.65;;;9.40;99.90;;;;;;4143158;28;20149;-67
2024/02/12 05:16:08;;;;;;;28.38;17.08;;;9.40;99.90;;;;;;4145650;28;20501;-67
2024/02/12 05:22:33;;;;;;;31.02;16.77;;;9.30;99.90;;;;;;4142361;28;20087;-67
2024/02/12 05:22:56;;;;;;;35.08;17.90;;;9.30;99.90;;;;;;4148380;28;20529;-67
2024/02/12 05:24:58;;;;;;;31.25;18.63;;;9.20;99.90;;;;;;4143520;28;20088;-67
2024/02/12 05:26:59;;;;;;;26.17;16.27;;;9.20;99.90;;;;;;4142141;28;20029;-67
2024/02/12 05:29:00;;;;;;;28.00;16.80;;;9.20;99.90;;;;;;4143609;28;20042;-67
2024/02/12 05:31:00;;;;;;;32.88;18.23;;;9.20;99.90;;;;;;4142400;28;20054;-67
2024/02/12 05:33:01;;;;;;;28.15;18.15;;;9.20;99.90;;;;;;4144236;28;20382;-67
2024/02/12 05:35:02;;;;;;;35.67;18.65;;;9.10;99.90;;;;;;4142920;28;20136;-67
2024/02/12 05:37:02;;;;;;;26.83;17.33;;;9.10;99.90;;;;;;4142380;28;20045;-67
2024/02/12 05:39:03;;;;;;;32.22;18.85;;;9.10;99.90;;;;;;4147704;28;20084;-67
2024/02/12 05:41:04;;;;;;;32.78;18.95;;;9.00;99.90;;;;;;4140527;28;20030;-67
2024/02/12 05:43:04;;;;;;;33.05;18.83;;;9.00;99.90;;;;;;4144959;28;20196;-67
2024/02/12 05:45:08;;;;;;;36.05;20.48;;;9.00;99.90;;;;;;4144551;28;20068;-68
2024/02/12 05:47:10;;;;;;;30.52;18.77;;;9.00;99.90;;;;;;4142476;28;20030;-67
2024/02/12 05:49:14;;;;;;;28.30;18.20;;;9.00;99.90;;;;;;4142620;28;20292;-67
2024/02/12 05:51:14;;;;;;;29.70;18.50;;;9.00;99.90;;;;;;4145826;28;20053;-68
2024/02/12 05:53:15;;;;;;;30.42;19.25;;;9.00;99.90;;;;;;4142681;28;20478;-66
2024/02/12 05:55:15;;;;;;;29.67;18.27;;;9.00;99.90;;;;;;4139880;28;20414;-66
2024/02/12 05:57:16;;;;;;;33.42;18.25;;;9.00;99.90;;;;;;4141564;28;20538;-67
2024/02/12 05:59:17;;;;;;;30.55;19.08;;;9.00;99.90;;;;;;4146527;28;20046;-59
2024/02/12 06:01:18;;;;;;;37.35;21.35;;;9.00;99.90;;;;;;4149440;28;20034;-59
2024/02/12 06:03:18;;;;;;;45.20;24.23;;;9.10;99.90;;;;;;4146072;28;20398;-59
2024/02/12 06:05:19;;;;;;;40.80;22.33;;;9.00;99.90;;;;;;4146767;28;20076;-59
2024/02/12 06:07:20;;;;;;;38.85;22.85;;;9.00;99.90;;;;;;4146315;28;21010;-59
2024/02/12 06:09:20;;;;;;;36.72;21.73;;;9.00;99.90;;;;;;4144664;28;20045;-59
2024/02/12 06:11:21;;;;;;;33.15;20.98;;;9.00;99.90;;;;;;4140297;28;20121;-59
2024/02/12 06:13:22;;;;;;;42.92;25.40;;;9.00;99.90;;;;;;4145284;28;20034;-58
2024/02/12 06:15:22;;;;;;;35.63;21.55;;;9.00;99.90;;;;;;4144597;28;20125;-58
2024/02/12 06:17:23;;;;;;;44.08;23.77;;;9.00;99.90;;;;;;4145331;28;20100;-59
2024/02/12 06:19:23;;;;;;;34.38;21.60;;;8.90;99.90;;;;;;4143832;28;20045;-59
2024/02/12 06:21:24;;;;;;;35.20;22.15;;;9.00;99.90;;;;;;4145472;28;20399;-58
2024/02/12 06:23:25;;;;;;;33.00;20.38;;;9.00;99.90;;;;;;4130425;28;20471;-59
2024/02/12 06:25:25;;;;;;;33.45;20.33;;;8.90;99.90;;;;;;4146500;28;20042;-58
2024/02/12 06:27:27;;;;;;;35.70;22.02;;;8.90;99.90;;;;;;4148925;28;20038;-59
2024/02/12 06:29:28;;;;;;;33.80;20.00;;;9.00;99.90;;;;;;4146558;28;20034;-59
2024/02/12 06:31:28;;;;;;;32.97;19.95;;;9.00;99.90;;;;;;4146837;28;20490;-59
2024/02/12 06:33:29;;;;;;;33.45;20.13;;;8.90;99.90;;;;;;4151961;28;20060;-58
2024/02/12 06:35:32;;;;;;;36.50;20.42;;;9.00;99.90;;;;;;4151842;28;20029;-59
2024/02/12 06:37:34;;;;;;;32.75;19.95;;;9.00;99.90;;;;;;4145560;28;20463;-58
2024/02/12 06:39:34;;;;;;;38.90;22.35;;;9.00;99.90;;;;;;4144567;28;20049;-58
2024/02/12 06:41:35;;;;;;;31.00;19.02;;;9.00;99.90;;;;;;4153234;28;20427;-58
2024/02/12 06:43:36;;;;;;;29.73;19.23;;;9.00;99.90;;;;;;4149695;28;20029;-58
2024/02/12 06:45:36;;;;;;;32.45;19.70;;;9.00;99.90;;;;;;4147596;28;20512;-58
2024/02/12 06:47:37;;;;;;;35.95;20.65;;;9.00;99.90;;;;;;4146051;28;20116;-58
2024/02/12 06:49:39;;;;;;;31.55;20.25;;;9.00;99.90;;;;;;4144180;28;20038;-58
2024/02/12 06:51:40;;;;;;;;;;;9.00;99.90;;;;;;4149117;28;20042;-58
2024/02/12 06:53:44;;;;;;;35.40;20.77;;;9.00;99.90;;;;;;4145036;28;19916;-58
2024/02/12 06:55:46;;;;;;;31.70;19.70;;;9.00;99.90;;;;;;4122641;28;20407;-58
2024/02/12 06:57:46;;;;;;;35.45;20.90;;;9.00;99.90;;;;;;4145688;28;20073;-60
2024/02/12 06:59:47;;;;;;;36.05;21.92;;;9.00;99.90;;;;;;4142992;28;20521;-59
2024/02/12 07:01:47;;;;;;;32.25;19.63;;;9.00;99.90;;;;;;4143873;28;20033;-59
2024/02/12 07:03:49;;;;;;;35.13;20.90;;;9.00;99.90;;;;;;4148211;28;20079;-59
2024/02/12 07:05:50;;;;;;;31.17;19.40;;;9.00;99.90;;;;;;4143297;28;20069;-59
2024/02/12 07:07:51;;;;;;;33.95;19.58;;;9.00;99.90;;;;;;4145614;28;20041;-67
2024/02/12 07:09:51;;;;;;;32.90;21.48;;;9.00;99.90;;;;;;4147479;28;20395;-58
2024/02/12 07:11:52;;;;;;;29.92;19.23;;;9.00;99.90;;;;;;4150048;28;20073;-58
2024/02/12 07:13:53;;;;;;;32.40;20.48;;;9.00;99.90;;;;;;4148426;28;20066;-59
2024/02/12 07:15:53;;;;;;;33.90;21.48;;;9.00;99.90;;;;;;4148641;28;20037;-58
2024/02/12 07:17:55;;;;;;;33.67;19.73;;;9.00;99.90;;;;;;4147460;28;20095;-59
2024/02/12 07:19:55;;;;;;;33.83;20.30;;;9.00;99.90;;;;;;4146006;28;20033;-58
2024/02/12 07:21:56;;;;;;;35.78;21.15;;;9.00;99.90;;;;;;4143435;28;20034;-58
2024/02/12 07:23:56;;;;;;;33.65;20.83;;;9.00;99.90;;;;;;4145528;28;20049;-58
2024/02/12 07:25:57;;;;;;;29.85;19.95;;;9.00;99.90;;;;;;4144250;28;20038;-58
2024/02/12 07:27:58;;;;;;;37.40;23.02;;;9.00;99.90;;;;;;4146185;28;20487;-58
2024/02/12 07:29:58;;;;;;;33.25;20.45;;;9.00;99.90;;;;;;4139469;28;20485;-59
2024/02/12 07:31:59;;;;;;;34.42;22.02;;;9.00;99.90;;;;;;4142518;28;20097;-58
2024/02/12 07:34:02;;;;;;;34.78;18.70;;;9.00;99.90;;;;;;4140683;28;20062;-58
2024/02/12 07:36:03;;;;;;;36.38;21.58;;;9.00;99.90;;;;;;4142462;28;20364;-58
2024/02/12 07:38:05;;;;;;;35.22;21.02;;;8.90;99.90;;;;;;4141109;28;20129;-58
2024/02/12 07:40:10;;;;;;;33.67;19.95;;;8.90;99.90;;;;;;4136278;28;20069;-59
2024/02/12 07:42:12;;;;;;;32.05;19.38;;;8.90;99.90;;;;;;4149989;28;20052;-58
2024/02/12 07:44:13;;;;;;;29.65;18.98;;;8.90;99.90;;;;;;4143613;28;20045;-59
2024/02/12 07:46:14;;;;;;;35.72;20.17;;;8.90;99.90;;;;;;4142947;28;20041;-59
2024/02/12 07:48:15;;;;;;;34.30;20.63;;;8.90;99.90;;;;;;4145949;28;20041;-66
2024/02/12 07:50:16;;;;;;;31.20;19.00;;;8.90;99.90;;;;;;4144982;28;20037;-70
2024/02/12 07:52:16;;;;;;;41.67;20.52;;;8.90;99.90;;;;;;4147314;28;20044;-71
2024/02/12 07:54:17;;;;;;;30.75;17.77;;;8.90;99.90;;;;;;4140625;28;20085;-68
2024/02/12 07:56:18;;;;;;;32.33;19.17;;;8.90;99.90;;;;;;4129780;28;20033;-70
2024/02/12 07:58:20;;;;;;;31.52;18.02;;;8.90;99.90;;;;;;4147882;28;20486;-70
2024/02/12 08:00:21;;;;;;;30.00;17.58;;;8.90;99.90;;;;;;4148062;28;20120;-71
2024/02/12 08:02:22;;;;;;;29.92;17.60;;;8.90;99.90;;;;;;4149544;28;20030;-71
2024/02/12 08:04:22;;;;;;;26.92;17.67;;;9.00;99.90;;;;;;4148292;28;20466;-71
2024/02/12 08:06:24;;;;;;;27.40;17.90;;;9.00;99.90;;;;;;4126681;28;20401;-70
2024/02/12 08:08:24;;;;;;;28.77;18.60;;;8.90;99.90;;;;;;4143996;28;20439;-71
2024/02/12 08:10:25;;;;;;;29.15;18.02;;;9.00;99.90;;;;;;4143955;28;20116;-70
2024/02/12 08:12:25;;;;;;;29.00;17.48;;;9.00;99.90;;;;;;4147559;28;20339;-70
2024/02/12 08:14:26;;;;;;;31.08;18.50;;;9.00;99.90;;;;;;4144300;28;20038;-71
2024/02/12 08:16:27;;;;;;;30.95;19.75;;;9.00;99.90;;;;;;4145473;28;20034;-71
2024/02/12 08:18:28;;;;;;;26.83;16.33;;;9.00;99.90;;;;;;4145616;28;20038;-59
2024/02/12 08:20:29;;;;;;;28.58;17.63;;;9.00;99.90;;;;;;4142179;28;20041;-63
2024/02/12 08:22:30;;;;;;;28.55;17.23;;;9.00;99.90;;;;;;4142933;28;20038;-63
2024/02/12 08:24:31;;;;;;;25.83;15.88;;;9.00;99.90;;;;;;4139088;28;20399;-63
2024/02/12 08:26:31;;;;;;;25.65;15.82;;;9.00;99.90;;;;;;4139820;28;20537;-63
2024/02/12 08:28:33;;;;;;;27.10;15.98;;;9.00;99.90;;;;;;4139775;28;20038;-63
2024/02/12 08:30:34;;;;;;;26.35;16.15;;;9.10;99.90;;;;;;4139720;28;20053;-63
2024/02/12 08:32:35;;;;;;;31.80;17.13;;;9.00;99.90;;;;;;4139846;28;20041;-63
2024/02/12 08:34:40;;;;;;;30.13;18.17;;;9.10;99.90;;;;;;4141200;28;20124;-63
2024/02/12 08:36:43;;;;;;;27.67;15.90;;;9.10;99.90;;;;;;4135844;28;20525;-63
2024/02/12 08:38:44;;;;;;;28.00;15.65;;;9.00;99.90;;;;;;4127001;28;20493;-64
2024/02/12 08:40:45;;;;;;;28.35;17.73;;;9.10;99.90;;;;;;4138962;28;20062;-64
2024/02/12 08:42:46;;;;;;;30.50;16.48;;;9.10;99.90;;;;;;4134704;28;20030;-63
2024/02/12 08:44:49;;;;;;;28.08;15.38;;;9.00;99.90;;;;;;4138051;28;20449;-63
2024/02/12 08:46:50;;;;;;;25.50;15.05;;;9.10;99.90;;;;;;4134421;28;20387;-63
2024/02/12 08:48:51;;;;;;;26.70;14.93;;;9.10;99.90;;;;;;4140659;28;20037;-63
2024/02/12 08:50:51;;;;;;;21.70;13.52;;;9.10;99.90;;;;;;4132494;28;20815;-64
2024/02/12 08:52:53;;;;;;;20.50;12.48;;;9.10;99.90;;;;;;4139648;28;20072;-63
2024/02/12 08:54:53;;;;;;;19.23;11.80;;;9.10;99.90;;;;;;4139867;28;20095;-63
2024/02/12 08:56:54;;;;;;;22.33;12.27;;;9.10;99.90;;;;;;4137402;28;20409;-63
2024/02/12 08:58:58;;;;;;;24.00;11.90;;;9.10;99.90;;;;;;4139339;28;20049;-68
2024/02/12 09:00:58;;;;;;;17.65;11.07;;;9.00;99.90;;;;;;4138595;28;20045;-68
2024/02/12 09:02:59;;;;;;;15.23;9.80;;;9.00;99.90;;;;;;4141413;28;20418;-68
2024/02/12 09:05:01;;;;;;;16.63;9.40;;;9.00;99.90;;;;;;4139723;28;20086;-69
2024/02/12 09:07:02;;;;;;;15.07;8.45;;;9.10;99.90;;;;;;4137522;28;20037;-69
2024/02/12 09:09:02;;;;;;;14.20;8.57;;;9.10;99.90;;;;;;4138659;28;20057;-68
2024/02/12 09:11:03;;;;;;;14.20;8.15;;;9.10;99.90;;;;;;4138382;28;20046;-68
2024/02/12 09:13:05;;;;;;;11.40;7.25;;;9.10;99.90;;;;;;4139026;28;20522;-68
2024/02/12 09:15:08;;;;;;;11.35;7.47;;;9.10;99.90;;;;;;4138807;28;20517;-68
2024/02/12 09:17:08;;;;;;;15.68;7.63;;;9.10;99.90;;;;;;4138232;28;20083;-68
2024/02/12 09:19:09;;;;;;;13.10;7.72;;;9.10;99.90;;;;;;4139066;28;20049;-68
2024/02/12 09:21:12;;;;;;;14.18;8.55;;;9.20;99.90;;;;;;4138648;28;20046;-68
2024/02/12 09:23:12;;;;;;;15.30;8.63;;;9.20;99.90;;;;;;4138914;28;20061;-68
2024/02/12 09:25:13;;;;;;;16.73;9.07;;;9.20;99.90;;;;;;4138038;28;20030;-69
2024/02/12 09:27:14;;;;;;;16.08;9.85;;;9.20;99.90;;;;;;4140593;28;20038;-68
2024/02/12 09:29:16;;;;;;;14.85;9.88;;;9.20;99.90;;;;;;4139074;28;20038;-63
2024/02/12 09:31:16;;;;;;;20.17;11.85;;;9.30;99.90;;;;;;4139228;28;20050;-63
2024/02/12 09:33:17;;;;;;;19.38;11.52;;;9.30;99.90;;;;;;4142923;28;20030;-63
2024/02/12 09:35:17;;;;;;;18.17;11.93;;;9.50;99.90;;;;;;4141809;28;20388;-63
2024/02/12 09:37:18;;;;;;;24.65;13.48;;;9.50;99.90;;;;;;4140757;28;20129;-63
2024/02/12 09:39:19;;;;;;;20.45;13.35;;;9.60;99.90;;;;;;4136977;28;20058;-63
2024/02/12 09:41:28;;;;;;;22.20;13.32;;;9.70;99.90;;;;;;4140244;28;20053;-63
2024/02/12 09:43:32;;;;;;;19.48;11.80;;;9.80;99.90;;;;;;4141949;28;20073;-63
2024/02/12 09:45:40;;;;;;;18.08;10.80;;;9.80;99.90;;;;;;4143370;28;20034;-63
2024/02/12 09:47:43;;;;;;;24.80;12.90;;;10.00;99.90;;;;;;4142082;28;20422;-63
2024/02/12 09:49:44;;;;;;;27.13;14.50;;;10.00;99.90;;;;;;4140751;28;20536;-63
2024/02/12 09:51:47;;;;;;;25.50;13.95;;;10.00;99.90;;;;;;4142776;28;20050;-63
2024/02/12 09:53:51;;;;;;;21.67;13.77;;;10.00;99.90;;;;;;4140946;28;20501;-64
2024/02/12 09:55:55;;;;;;;26.13;13.55;;;10.00;99.90;;;;;;4141532;28;20065;-64
2024/02/12 09:57:58;;;;;;;18.83;12.25;;;9.90;99.90;;;;;;4139389;28;20037;-63
2024/02/12 10:00:00;;;;;;;21.20;12.93;;;9.90;99.90;;;;;;4140042;28;20049;-63
2024/02/12 10:02:02;;;;;;;22.80;14.18;;;9.90;99.90;;;;;;4143372;28;20136;-63
2024/02/12 10:04:03;;;;;;;21.10;12.25;;;9.90;99.90;;;;;;4136227;28;20069;-64
2024/02/12 10:06:05;;;;;;;21.50;12.63;;;9.90;99.90;;;;;;4139937;28;20049;-63
2024/02/12 10:08:21;;;;;;;24.88;13.15;;;9.90;99.90;;;;;;4140091;28;20034;-66
2024/02/12 10:10:21;;;;;;;19.50;11.95;;;9.90;99.90;;;;;;4139139;28;22149;-66
2024/02/12 10:12:22;;;;;;;17.85;12.15;;;9.90;99.90;;;;;;4143524;28;20044;-66
2024/02/12 10:14:32;;;;;;;21.85;14.27;;;9.90;99.90;;;;;;4141843;28;20108;-65
2024/02/12 10:16:33;;;;;;;21.58;13.70;;;10.00;99.90;;;;;;4143908;28;20037;-65
2024/02/12 10:18:34;;;;;;;22.15;12.85;;;10.00;99.90;;;;;;4140484;28;20084;-65
2024/02/12 10:20:34;;;;;;;22.25;12.65;;;10.00;99.90;;;;;;4140650;28;20475;-65
2024/02/12 10:22:41;;;;;;;17.15;11.60;;;10.00;99.90;;;;;;4143503;28;20453;-64
2024/02/12 10:24:48;;;;;;;22.73;11.57;;;10.00;99.90;;;;;;4142881;28;20042;-65
2024/02/12 10:26:49;;;;;;;19.85;12.00;;;10.00;99.90;;;;;;4140002;28;20046;-65
2024/02/12 10:28:59;;;;;;;19.17;11.82;;;10.00;99.90;;;;;;4138941;28;20064;-65
2024/02/12 10:31:00;;;;;;;20.15;11.60;;;10.00;99.90;;;;;;4140275;28;20494;-65
2024/02/12 10:33:06;;;;;;;19.80;11.90;;;10.00;99.90;;;;;;4141263;28;20117;-65
2024/02/12 10:35:11;;;;;;;18.70;11.50;;;10.00;99.90;;;;;;4141508;28;20034;-65
2024/02/12 10:37:14;;;;;;;23.50;11.90;;;10.00;99.90;;;;;;4136470;28;20124;-65
2024/02/12 10:39:18;;;;;;;19.13;11.07;;;10.00;99.90;;;;;;4140264;28;20045;-70
2024/02/12 10:41:28;;;;;;;18.25;11.50;;;10.00;99.90;;;;;;4139574;28;20439;-70